Time;durP1;ratioP1;P1;durP2;ratioP2;P2;SDS_P1;SDS_P2;PMS_P1;PMS_P2;Temp;Humidity;BMP_temperature;BMP_pressure;BME280_temperature;BME280_humidity;BME280_pressure;Samples;Min_cycle;Max_cycle;Signal;HPM_P1;HPM_P2
2022/06/28 00:01:25;;;;;;;3.10;1.90;;;15.90;99.90;;;;;;5120456;28;20200;-85
2022/06/28 00:03:51;;;;;;;2.33;1.80;;;;;;;;;;5121527;28;20340;-85
2022/06/28 00:06:17;;;;;;;2.40;1.83;;;15.90;99.90;;;;;;5121879;28;20176;-85
2022/06/28 00:08:42;;;;;;;2.67;1.90;;;15.90;99.90;;;;;;5121582;28;20286;-85
2022/06/28 00:11:08;;;;;;;2.00;1.70;;;15.90;99.90;;;;;;5121987;28;20192;-86
2022/06/28 00:13:34;;;;;;;3.43;1.97;;;16.00;99.90;;;;;;5127159;28;20164;-85
2022/06/28 00:16:06;;;;;;;1.93;1.63;;;15.90;99.90;;;;;;5119739;28;20192;-85
2022/06/28 00:18:41;;;;;;;3.03;1.90;;;15.90;99.90;;;;;;5118603;28;20188;-85
2022/06/28 00:21:08;;;;;;;2.33;1.70;;;15.80;99.90;;;;;;5119752;28;20195;-85
2022/06/28 00:23:35;;;;;;;2.93;1.90;;;15.80;99.90;;;;;;5117520;28;20250;-84
2022/06/28 00:26:02;;;;;;;3.13;2.00;;;15.80;99.90;;;;;;5116713;28;20182;-85
2022/06/28 00:28:27;;;;;;;4.23;1.93;;;15.80;99.90;;;;;;5116900;28;20241;-85
2022/06/28 00:30:53;;;;;;;3.53;2.20;;;;;;;;;;5120321;28;20274;-85
2022/06/28 00:33:19;;;;;;;2.20;2.00;;;16.00;99.90;;;;;;5123909;28;20176;-85
2022/06/28 00:35:45;;;;;;;4.97;2.37;;;15.90;99.90;;;;;;5124961;27;20183;-85
2022/06/28 00:38:12;;;;;;;2.40;2.20;;;16.00;99.90;;;;;;5132236;28;20175;-85
2022/06/28 00:40:53;;;;;;;2.70;2.20;;;16.00;99.90;;;;;;5134362;28;20553;-85
2022/06/28 00:43:20;;;;;;;2.63;2.20;;;16.00;99.90;;;;;;5122848;28;20734;-84
2022/06/28 00:45:47;;;;;;;2.80;2.00;;;15.90;99.90;;;;;;5119942;28;20548;-85
2022/06/28 00:48:15;;;;;;;2.10;1.90;;;15.90;99.90;;;;;;5120836;28;20176;-85
2022/06/28 00:50:41;;;;;;;3.03;2.43;;;16.00;99.90;;;;;;5121464;28;20551;-85
2022/06/28 00:53:13;;;;;;;3.67;2.20;;;16.00;99.90;;;;;;5119985;28;20179;-85
2022/06/28 00:55:40;;;;;;;3.60;2.03;;;16.00;99.90;;;;;;5123498;28;20203;-85
2022/06/28 00:58:06;;;;;;;2.13;1.93;;;15.90;99.90;;;;;;5123385;28;20176;-84
2022/06/28 01:00:37;;;;;;;2.73;1.90;;;15.90;99.90;;;;;;5120288;28;20199;-84
2022/06/28 01:03:03;;;;;;;4.27;2.27;;;15.90;99.90;;;;;;5119294;28;20244;-85
2022/06/28 01:05:29;;;;;;;2.87;2.50;;;15.90;99.90;;;;;;5118464;28;20298;-85
2022/06/28 01:07:55;;;;;;;3.53;2.17;;;15.90;99.90;;;;;;5119364;28;20199;-84
2022/06/28 01:10:23;;;;;;;2.13;1.93;;;15.90;99.90;;;;;;5119659;28;20187;-85
2022/06/28 01:12:48;;;;;;;2.37;2.10;;;15.90;99.90;;;;;;5118044;28;20172;-84
2022/06/28 01:15:15;;;;;;;2.60;2.03;;;15.80;99.90;;;;;;5120251;28;20167;-84
2022/06/28 01:17:41;;;;;;;2.20;2.00;;;15.90;99.90;;;;;;5119565;28;20175;-84
2022/06/28 01:20:07;;;;;;;2.20;2.00;;;15.80;99.90;;;;;;5117821;28;20682;-84
2022/06/28 05:59:48;;;;;;;6.60;5.13;;;16.60;99.90;;;;;;5140417;27;20271;-82
2022/06/28 06:02:14;;;;;;;6.30;5.23;;;16.60;99.90;;;;;;5137795;27;20262;-82
2022/06/28 06:04:39;;;;;;;7.10;6.23;;;16.60;99.90;;;;;;5135064;28;20179;-82
2022/06/28 06:07:05;;;;;;;8.43;5.90;;;16.70;99.90;;;;;;5147037;28;20163;-82
2022/06/28 06:09:31;;;;;;;9.33;5.10;;;16.90;99.90;;;;;;5156461;28;20170;-85
2022/06/28 06:11:56;;;;;;;7.33;5.50;;;17.00;99.90;;;;;;5144918;28;20209;-82
2022/06/28 06:14:22;;;;;;;7.40;5.57;;;17.10;99.90;;;;;;5139443;28;20174;-82
2022/06/28 06:16:50;;;;;;;6.90;5.07;;;17.10;99.90;;;;;;5139777;27;20258;-83
2022/06/28 06:19:17;;;;;;;7.57;5.57;;;17.20;99.90;;;;;;5138741;27;20290;-83
2022/06/28 06:21:43;;;;;;;5.30;4.77;;;17.30;99.90;;;;;;5138336;27;20593;-82
2022/06/28 06:24:09;;;;;;;7.90;4.93;;;17.30;99.90;;;;;;5137145;28;20176;-82
2022/06/28 06:26:35;;;;;;;7.07;4.90;;;17.30;99.90;;;;;;5136389;28;20674;-83
2022/06/28 06:29:00;;;;;;;5.00;4.50;;;17.30;99.90;;;;;;5135891;28;20175;-83
2022/06/28 06:31:27;;;;;;;7.97;4.43;;;17.30;99.90;;;;;;5136512;27;20195;-82
2022/06/28 06:33:53;;;;;;;4.80;4.40;;;17.40;99.90;;;;;;5135656;28;20214;-82
2022/06/28 06:36:19;;;;;;;5.80;4.30;;;17.50;99.90;;;;;;5135565;28;20183;-83
2022/06/28 06:38:44;;;;;;;4.47;4.03;;;17.60;99.90;;;;;;5134468;28;20561;-82
2022/06/28 06:41:10;;;;;;;6.40;4.57;;;17.60;99.90;;;;;;5133633;28;20282;-82
2022/06/28 06:43:36;;;;;;;6.87;3.80;;;17.70;99.90;;;;;;5132221;28;20517;-83
2022/06/28 06:46:01;;;;;;;4.20;3.80;;;17.80;99.90;;;;;;5131683;28;20182;-83
2022/06/28 06:48:27;;;;;;;5.27;3.67;;;17.90;99.90;;;;;;5141634;28;20179;-83
2022/06/28 06:50:53;;;;;;;4.60;3.57;;;17.90;99.90;;;;;;5142865;28;20220;-83
2022/06/28 06:53:19;;;;;;;4.27;3.67;;;18.00;99.90;;;;;;5143718;27;20236;-83
2022/06/28 06:55:46;;;;;;;5.07;3.20;;;18.10;99.90;;;;;;5140067;28;20274;-84
2022/06/28 06:58:12;;;;;;;3.90;3.23;;;18.10;99.90;;;;;;5142789;28;20211;-83
2022/06/28 07:00:38;;;;;;;4.53;2.83;;;18.10;99.90;;;;;;5146714;27;20183;-83
2022/06/28 07:03:04;;;;;;;4.33;3.33;;;18.20;99.90;;;;;;5144134;27;20178;-83
2022/06/28 07:05:30;;;;;;;5.87;3.30;;;18.40;99.90;;;;;;5140379;28;20179;-82
2022/06/28 07:07:56;;;;;;;3.83;3.17;;;18.50;99.90;;;;;;5141030;27;20194;-83
2022/06/28 07:10:22;;;;;;;4.40;3.07;;;18.60;99.90;;;;;;5131488;28;20574;-84
2022/06/28 07:12:48;;;;;;;5.40;3.47;;;18.60;99.90;;;;;;5129752;28;20552;-84
2022/06/28 07:15:14;;;;;;;4.20;2.90;;;18.50;99.90;;;;;;5130583;28;20183;-83
2022/06/28 07:17:40;;;;;;;3.37;2.57;;;18.50;99.90;;;;;;5123980;28;20205;-83
2022/06/28 07:20:06;;;;;;;5.03;2.80;;;18.50;99.90;;;;;;5124520;28;20205;-83
2022/06/28 07:22:33;;;;;;;4.07;3.03;;;18.40;99.90;;;;;;5126133;28;20191;-82
2022/06/28 07:24:59;;;;;;;4.20;2.90;;;18.40;99.90;;;;;;5124122;28;20172;-84
2022/06/28 07:27:26;;;;;;;3.73;3.23;;;18.40;99.90;;;;;;5124208;28;20709;-83
2022/06/28 07:29:52;;;;;;;2.83;2.50;;;18.40;99.90;;;;;;5126189;28;20173;-83
2022/06/28 07:32:18;;;;;;;2.77;2.57;;;18.30;99.90;;;;;;5124367;28;20209;-83
2022/06/28 07:34:44;;;;;;;4.53;2.20;;;18.40;99.90;;;;;;5124587;28;20268;-83
2022/06/28 07:37:10;;;;;;;2.83;2.47;;;18.40;99.90;;;;;;5124499;28;20200;-83
2022/06/28 07:39:37;;;;;;;3.17;2.30;;;18.50;99.90;;;;;;5124166;28;20229;-84
2022/06/28 07:42:03;;;;;;;2.60;2.40;;;18.60;99.90;;;;;;5125234;28;20548;-83
2022/06/28 07:44:28;;;;;;;3.57;3.00;;;18.70;99.90;;;;;;5124911;28;20535;-83
2022/06/28 07:46:54;;;;;;;5.37;3.00;;;18.80;99.90;;;;;;5124691;28;20230;-83
2022/06/28 07:49:20;;;;;;;3.33;3.03;;;18.80;99.90;;;;;;5124789;28;20187;-83
2022/06/28 07:54:30;;;;;;;2.60;2.40;;;19.00;99.90;;;;;;5126888;28;20192;-83
2022/06/28 07:56:55;;;;;;;3.83;3.23;;;19.10;99.90;;;;;;5124699;28;20184;-83
2022/06/28 07:59:21;;;;;;;4.10;2.97;;;19.20;99.90;;;;;;5123862;28;20235;-83
2022/06/28 08:01:47;;;;;;;6.27;2.70;;;19.30;99.90;;;;;;5124679;28;20204;-84
2022/06/28 08:04:14;;;;;;;8.93;3.07;;;19.40;99.90;;;;;;5126016;28;20232;-83
2022/06/28 08:06:41;;;;;;;2.80;2.57;;;19.40;99.90;;;;;;5126121;28;20169;-83
2022/06/28 08:09:07;;;;;;;3.20;2.70;;;19.50;99.90;;;;;;5123678;28;20186;-83
2022/06/28 08:11:33;;;;;;;4.57;2.80;;;19.50;99.90;;;;;;5125601;28;20252;-82
2022/06/28 08:14:02;;;;;;;4.67;2.63;;;19.50;99.90;;;;;;5123959;28;20182;-82
2022/06/28 08:16:28;;;;;;;4.17;3.00;;;19.50;99.90;;;;;;5135923;28;20195;-83
2022/06/28 08:18:53;;;;;;;3.00;2.70;;;19.60;99.90;;;;;;5140494;28;20206;-84
2022/06/28 08:21:19;;;;;;;2.83;2.57;;;19.60;99.90;;;;;;5123553;28;20210;-83
2022/06/28 08:23:45;;;;;;;2.63;2.43;;;19.60;99.90;;;;;;5124465;28;20186;-84
2022/06/28 08:26:11;;;;;;;3.53;2.80;;;19.70;99.90;;;;;;5124249;28;20185;-83
2022/06/28 08:28:37;;;;;;;3.33;2.53;;;19.80;99.90;;;;;;5124482;28;20182;-83
2022/06/28 08:31:02;;;;;;;2.87;2.40;;;19.80;99.90;;;;;;5126224;28;20584;-84
2022/06/28 08:33:28;;;;;;;2.60;2.40;;;19.90;99.90;;;;;;5129766;28;20631;-83
2022/06/28 08:35:54;;;;;;;3.47;2.80;;;20.00;99.90;;;;;;5132698;28;20173;-83
2022/06/28 08:38:19;;;;;;;4.67;2.27;;;20.00;99.90;;;;;;5122652;28;20210;-82
2022/06/28 08:40:46;;;;;;;3.83;2.70;;;20.10;99.90;;;;;;5118134;28;20235;-83
2022/06/28 08:43:12;;;;;;;7.30;2.50;;;20.10;99.90;;;;;;5118269;28;20198;-83
2022/06/28 08:45:38;;;;;;;4.53;2.30;;;20.20;99.90;;;;;;5117083;28;20175;-83
2022/06/28 08:48:21;;;;;;;5.00;2.57;;;20.20;99.90;;;;;;5116404;28;20182;-82
2022/06/28 08:50:52;;;;;;;3.03;2.20;;;20.20;99.90;;;;;;5119614;28;20286;-83
2022/06/28 08:53:20;;;;;;;5.63;2.40;;;20.20;99.90;;;;;;5120979;28;20179;-82
2022/06/28 08:55:48;;;;;;;4.10;2.30;;;20.30;99.90;;;;;;5121627;28;20173;-82
2022/06/28 08:58:14;;;;;;;3.50;2.40;;;20.30;99.90;;;;;;5119422;28;20249;-83
2022/06/28 09:00:41;;;;;;;2.60;2.40;;;20.40;99.90;;;;;;5121203;28;20242;-82
2022/06/28 09:03:06;;;;;;;2.80;2.00;;;20.50;99.90;;;;;;5122754;28;20179;-82
2022/06/28 09:05:32;;;;;;;2.93;2.60;;;20.60;99.90;;;;;;5120702;28;20690;-83
2022/06/28 09:07:58;;;;;;;2.40;2.20;;;20.70;99.90;;;;;;5120277;28;20666;-82
2022/06/28 09:10:25;;;;;;;2.47;1.70;;;20.70;99.90;;;;;;5120879;28;20209;-83
2022/06/28 09:13:07;;;;;;;2.90;2.00;;;20.80;99.90;;;;;;5120201;28;20266;-83
2022/06/28 09:15:53;;;;;;;5.73;2.23;;;20.90;99.90;;;;;;5121081;28;20175;-84
2022/06/28 09:18:21;;;;;;;2.27;2.07;;;20.80;99.90;;;;;;5119738;28;20660;-82
2022/06/28 09:20:51;;;;;;;3.90;2.50;;;20.80;99.90;;;;;;5119290;28;20191;-82
2022/06/28 09:23:35;;;;;;;5.20;2.30;;;20.70;99.90;;;;;;5120263;28;20172;-83
2022/06/28 09:26:06;;;;;;;2.50;2.30;;;20.70;99.90;;;;;;5120633;28;20174;-83
2022/06/28 09:28:35;;;;;;;3.43;1.97;;;20.70;99.90;;;;;;5120687;28;20182;-82
2022/06/28 09:31:29;;;;;;;3.30;2.03;;;20.60;99.90;;;;;;5120365;28;20294;-82
2022/06/28 09:34:02;;;;;;;5.80;2.50;;;20.60;99.90;;;;;;5120104;28;20192;-83
2022/06/28 09:36:36;;;;;;;2.73;2.53;;;20.60;99.90;;;;;;5121110;28;20180;-83
2022/06/28 09:39:16;;;;;;;4.57;2.10;;;20.60;99.90;;;;;;5121433;28;20206;-83
2022/06/28 09:41:47;;;;;;;2.33;2.13;;;20.50;99.90;;;;;;5121314;28;20223;-82
2022/06/28 09:44:15;;;;;;;2.27;2.07;;;20.50;99.90;;;;;;5120767;28;20172;-83
2022/06/28 09:46:41;;;;;;;2.20;2.00;;;20.40;99.90;;;;;;5121322;28;20213;-83
2022/06/28 09:49:08;;;;;;;3.80;2.40;;;20.40;99.90;;;;;;5121256;28;20187;-84
2022/06/28 09:51:36;;;;;;;2.40;2.20;;;20.40;99.90;;;;;;5120450;28;20252;-83
2022/06/28 09:54:07;;;;;;;2.27;2.07;;;20.30;99.90;;;;;;5122053;28;20183;-83
2022/06/28 09:56:41;;;;;;;4.27;2.30;;;20.30;99.90;;;;;;5121992;28;20243;-83
2022/06/28 09:59:08;;;;;;;2.50;2.30;;;20.20;99.90;;;;;;5124760;28;20771;-83
2022/06/28 10:01:35;;;;;;;2.53;2.33;;;20.10;99.90;;;;;;5123499;28;20195;-83
2022/06/28 10:04:01;;;;;;;3.60;2.27;;;20.10;99.90;;;;;;5122578;28;20540;-83
2022/06/28 10:06:28;;;;;;;2.20;2.00;;;20.00;99.90;;;;;;5121400;28;20175;-83
2022/06/28 10:08:54;;;;;;;2.40;2.03;;;19.80;99.90;;;;;;5124874;28;20179;-82
2022/06/28 10:11:20;;;;;;;2.57;2.20;;;19.70;99.90;;;;;;5125718;28;20198;-83
2022/06/28 10:16:46;;;;;;;3.17;2.40;;;19.50;99.90;;;;;;5122960;28;20166;-83
2022/06/28 10:19:18;;;;;;;2.30;2.10;;;19.50;99.90;;;;;;5121599;28;20179;-82
2022/06/28 10:22:10;;;;;;;2.70;2.10;;;19.50;99.90;;;;;;5121360;28;20284;-83
2022/06/28 10:25:03;;;;;;;6.53;2.40;;;19.40;99.90;;;;;;5130741;28;20180;-83
2022/06/28 10:27:29;;;;;;;7.47;2.80;;;19.50;99.90;;;;;;5132621;28;20221;-82
2022/06/28 10:29:58;;;;;;;3.87;2.40;;;19.50;99.90;;;;;;5120233;28;20187;-82
2022/06/28 10:32:39;;;;;;;2.97;2.67;;;19.50;99.90;;;;;;5118771;28;20184;-82
2022/06/28 10:35:06;;;;;;;3.73;2.50;;;19.60;99.90;;;;;;5121514;28;20208;-83
2022/06/28 10:37:32;;;;;;;5.40;2.30;;;19.60;99.90;;;;;;5120887;28;20173;-82
2022/06/28 10:40:22;;;;;;;4.60;2.17;;;19.70;99.90;;;;;;5120916;28;20543;-83
2022/06/28 10:42:51;;;;;;;4.57;2.63;;;19.70;99.90;;;;;;5122137;28;20176;-83
2022/06/28 10:45:20;;;;;;;4.13;2.53;;;19.80;99.90;;;;;;5121719;28;20251;-83
2022/06/28 10:48:07;;;;;;;2.63;2.40;;;19.70;99.90;;;;;;5125981;28;20171;-83
2022/06/28 10:50:59;;;;;;;2.63;2.33;;;19.80;99.90;;;;;;5125125;28;20270;-82
2022/06/28 10:53:33;;;;;;;2.43;2.23;;;19.80;99.90;;;;;;5124155;27;20164;-82
2022/06/28 10:56:14;;;;;;;3.30;3.00;;;19.80;99.90;;;;;;5120128;28;20168;-82
2022/06/28 10:58:59;;;;;;;2.50;2.30;;;19.90;99.90;;;;;;5120422;28;20238;-82
2022/06/28 11:01:40;;;;;;;5.27;2.63;;;19.80;99.90;;;;;;5126993;28;20226;-83
2022/06/28 11:04:24;;;;;;;2.73;2.53;;;19.80;99.90;;;;;;5125863;28;20164;-83
2022/06/28 11:06:54;;;;;;;3.80;2.80;;;19.70;99.90;;;;;;5124208;28;20531;-82
2022/06/28 11:09:48;;;;;;;3.63;2.80;;;19.60;99.90;;;;;;5121905;28;20176;-82
2022/06/28 11:12:37;;;;;;;3.07;2.73;;;19.60;99.90;;;;;;5123619;28;20166;-83
2022/06/28 11:15:06;;;;;;;7.83;3.30;;;19.50;99.90;;;;;;5122894;28;20195;-83
2022/06/28 11:17:34;;;;;;;4.13;3.10;;;19.50;99.90;;;;;;5121870;28;20176;-82
2022/06/28 11:20:11;;;;;;;3.67;3.20;;;19.30;99.90;;;;;;5123581;28;20175;-83
2022/06/28 11:22:45;;;;;;;7.33;3.10;;;19.30;99.90;;;;;;5124271;28;20176;-83
2022/06/28 11:25:14;;;;;;;6.43;3.43;;;19.20;99.90;;;;;;5122644;28;20182;-83
2022/06/28 11:27:57;;;;;;;4.40;3.57;;;19.10;99.90;;;;;;5123003;28;20262;-83
2022/06/28 11:30:27;;;;;;;8.30;3.80;;;19.10;99.90;;;;;;5123230;28;20199;-83
2022/06/28 11:32:57;;;;;;;4.17;3.40;;;19.10;99.90;;;;;;5123531;28;20179;-83
2022/06/28 11:35:25;;;;;;;7.87;3.60;;;19.00;99.90;;;;;;5124119;28;20179;-83
2022/06/28 11:37:53;;;;;;;6.87;3.60;;;19.00;99.90;;;;;;5122761;28;20213;-83
2022/06/28 11:40:50;;;;;;;5.87;4.77;;;19.00;99.90;;;;;;5122173;28;20201;-84
2022/06/28 11:43:25;;;;;;;5.07;3.83;;;18.90;99.90;;;;;;5128738;28;20188;-83
2022/06/28 11:45:52;;;;;;;4.97;4.33;;;18.90;99.90;;;;;;5128773;28;20181;-84
2022/06/28 11:48:33;;;;;;;4.80;4.00;;;18.90;99.90;;;;;;5124383;28;20223;-83
2022/06/28 11:51:00;;;;;;;4.50;4.10;;;18.90;99.90;;;;;;5122064;28;20226;-83
2022/06/28 11:53:27;;;;;;;8.53;4.67;;;18.80;99.90;;;;;;5122964;28;20186;-84
2022/06/28 11:55:58;;;;;;;6.40;4.13;;;18.80;99.90;;;;;;5123706;28;20240;-83
2022/06/28 11:58:31;;;;;;;4.17;3.77;;;18.80;99.90;;;;;;5123763;28;20213;-84
2022/06/28 12:01:03;;;;;;;4.00;3.70;;;18.90;99.90;;;;;;5124557;28;20365;-84
2022/06/28 12:03:29;;;;;;;7.00;3.77;;;19.00;99.90;;;;;;5124043;28;20206;-84
2022/06/28 12:05:57;;;;;;;4.73;4.10;;;18.80;99.90;;;;;;5124212;28;20176;-83
2022/06/28 12:08:44;;;;;;;7.03;4.93;;;18.80;99.90;;;;;;5125374;28;20178;-84
2022/06/28 12:11:28;;;;;;;5.43;4.90;;;18.90;99.90;;;;;;5124222;28;20210;-83
2022/06/28 12:14:18;;;;;;;5.30;4.80;;;19.00;99.90;;;;;;5122979;28;20171;-83
2022/06/28 12:17:06;;;;;;;6.50;4.63;;;19.00;99.90;;;;;;5123892;28;20164;-83
2022/06/28 12:19:34;;;;;;;5.10;4.50;;;19.10;99.90;;;;;;5126036;28;20250;-83
2022/06/28 12:22:16;;;;;;;5.03;4.53;;;19.30;99.90;;;;;;5125606;28;20187;-84
2022/06/28 12:24:54;;;;;;;10.33;4.47;;;19.40;99.90;;;;;;5123296;28;20160;-83
2022/06/28 12:27:21;;;;;;;4.50;4.10;;;19.50;99.90;;;;;;5123153;28;20155;-83
2022/06/28 12:29:51;;;;;;;4.30;3.83;;;19.80;99.90;;;;;;5124829;27;20179;-83
2022/06/28 12:32:18;;;;;;;5.23;4.60;;;19.60;99.90;;;;;;5124983;28;20183;-83
2022/06/28 12:34:44;;;;;;;4.23;3.83;;;19.70;99.90;;;;;;5134500;28;20174;-84
2022/06/28 12:37:10;;;;;;;4.97;4.47;;;19.60;99.90;;;;;;5135409;28;20186;-83
2022/06/28 12:39:36;;;;;;;4.77;4.03;;;19.90;99.90;;;;;;5119269;28;20207;-82
2022/06/28 12:42:03;;;;;;;4.90;3.80;;;20.00;99.90;;;;;;5119969;28;20537;-83
2022/06/28 12:44:29;;;;;;;4.17;3.80;;;20.00;99.90;;;;;;5120357;27;20688;-83
2022/06/28 12:46:55;;;;;;;4.00;3.57;;;;;;;;;;5120143;28;20181;-82
2022/06/28 12:49:21;;;;;;;4.10;3.70;;;;;;;;;;5119109;28;20178;-83
2022/06/28 12:51:47;;;;;;;4.53;3.47;;;20.80;99.90;;;;;;5117443;28;20738;-82
2022/06/28 12:54:14;;;;;;;5.27;3.73;;;20.60;99.90;;;;;;5118046;28;20181;-82
2022/06/28 12:56:40;;;;;;;3.70;3.40;;;20.60;99.90;;;;;;5118171;28;20605;-82
2022/06/28 12:59:06;;;;;;;3.57;3.03;;;20.50;99.90;;;;;;5117313;28;20214;-82
2022/06/28 13:01:32;;;;;;;6.00;2.93;;;;;;;;;;5115337;28;20274;-83
2022/06/28 13:03:58;;;;;;;2.97;2.67;;;20.50;99.90;;;;;;5114999;28;20181;-81
2022/06/28 13:06:24;;;;;;;4.60;3.03;;;20.30;99.90;;;;;;5121452;28;20194;-83
2022/06/28 13:08:50;;;;;;;7.10;3.07;;;20.50;99.90;;;;;;5120952;28;20500;-82
2022/06/28 13:11:16;;;;;;;3.70;2.80;;;20.40;99.90;;;;;;5122977;28;20197;-82
2022/06/28 13:13:42;;;;;;;3.70;2.87;;;20.30;99.90;;;;;;5121737;28;20177;-82
2022/06/28 13:16:08;;;;;;;3.70;2.83;;;20.30;99.90;;;;;;5123744;28;20220;-82
2022/06/28 13:18:34;;;;;;;3.40;3.10;;;;;;;;;;5124552;28;20203;-82
2022/06/28 13:21:00;;;;;;;7.53;3.10;;;20.20;99.90;;;;;;5123377;28;20560;-82
2022/06/28 13:23:26;;;;;;;4.47;3.33;;;19.90;99.90;;;;;;5121969;28;20186;-82
2022/06/28 13:25:53;;;;;;;3.60;3.27;;;19.60;99.90;;;;;;5122307;28;20166;-82
2022/06/28 13:28:19;;;;;;;6.70;2.80;;;19.90;99.90;;;;;;5123498;28;20170;-82
2022/06/28 13:30:45;;;;;;;4.73;2.77;;;19.90;99.90;;;;;;5122964;28;20619;-83
2022/06/28 13:33:12;;;;;;;5.10;3.03;;;19.80;99.90;;;;;;5120694;28;20179;-83
2022/06/28 13:35:41;;;;;;;5.90;3.60;;;19.90;99.90;;;;;;5122526;28;20261;-82
2022/06/28 13:38:07;;;;;;;3.70;3.40;;;19.80;99.90;;;;;;5121224;28;20194;-82
2022/06/28 13:40:32;;;;;;;6.60;3.00;;;19.70;99.90;;;;;;5120178;28;20198;-83
2022/06/28 13:42:58;;;;;;;3.57;3.00;;;19.50;99.90;;;;;;5119943;28;20184;-83
2022/06/28 13:45:24;;;;;;;4.50;2.97;;;19.70;99.90;;;;;;5120250;28;20174;-83
2022/06/28 13:47:50;;;;;;;7.80;2.80;;;;;;;;;;5121780;28;20183;-83
2022/06/28 13:50:16;;;;;;;3.33;3.03;;;19.60;99.90;;;;;;5123807;28;20193;-82
2022/06/28 13:52:45;;;;;;;5.60;2.90;;;19.10;99.90;;;;;;5118448;28;20189;-83
2022/06/28 13:55:12;;;;;;;4.20;3.50;;;19.10;99.90;;;;;;5118638;28;20202;-82
2022/06/28 13:57:39;;;;;;;7.00;3.07;;;19.60;99.90;;;;;;5118739;28;20179;-82
2022/06/28 14:00:09;;;;;;;4.00;3.53;;;19.40;99.90;;;;;;5117655;28;20205;-84
2022/06/28 14:02:36;;;;;;;4.37;2.97;;;19.40;99.90;;;;;;5117460;28;20165;-83
2022/06/28 14:05:02;;;;;;;5.87;3.53;;;19.40;99.90;;;;;;5119300;28;20531;-82
2022/06/28 14:07:28;;;;;;;8.17;2.97;;;;;;;;;;5117734;28;20176;-82
2022/06/28 14:09:54;;;;;;;3.33;3.03;;;;;;;;;;5118444;28;20204;-83
2022/06/28 14:12:20;;;;;;;3.50;3.20;;;19.40;99.90;;;;;;5118047;28;20638;-83
2022/06/28 14:14:46;;;;;;;7.53;3.47;;;19.50;99.90;;;;;;5117312;28;20179;-83
2022/06/28 14:17:12;;;;;;;3.43;3.23;;;;;;;;;;5119856;28;20171;-83
2022/06/28 14:19:39;;;;;;;3.63;3.13;;;19.70;99.90;;;;;;5121397;28;20201;-82
2022/06/28 14:22:05;;;;;;;5.27;3.07;;;19.60;99.90;;;;;;5124013;28;20184;-83
2022/06/28 14:24:31;;;;;;;3.30;3.00;;;19.50;99.90;;;;;;5122425;28;20700;-83
2022/06/28 14:26:57;;;;;;;6.87;4.07;;;;;;;;;;5122393;28;20196;-83
2022/06/28 14:29:25;;;;;;;3.63;3.33;;;19.60;99.90;;;;;;5125028;28;20167;-83
2022/06/28 14:31:51;;;;;;;5.60;3.50;;;19.50;99.90;;;;;;5123601;28;20201;-83
2022/06/28 14:34:17;;;;;;;4.83;3.80;;;;;;;;;;5123436;28;20178;-82
2022/06/28 14:36:44;;;;;;;5.03;3.53;;;19.50;99.90;;;;;;5123737;28;20184;-82
2022/06/28 14:39:12;;;;;;;4.10;3.70;;;19.40;99.90;;;;;;5124276;28;20198;-82
2022/06/28 14:41:39;;;;;;;4.07;3.70;;;19.10;99.90;;;;;;5127143;28;20190;-82
2022/06/28 14:44:06;;;;;;;6.70;3.43;;;19.30;99.90;;;;;;5137073;28;20182;-83
2022/06/28 14:46:32;;;;;;;5.50;3.80;;;19.20;99.90;;;;;;5139268;28;20154;-83
2022/06/28 14:48:57;;;;;;;6.13;3.60;;;19.10;99.90;;;;;;5122214;28;20178;-83
2022/06/28 14:51:24;;;;;;;3.97;3.50;;;;;;;;;;5124059;28;20213;-83
2022/06/28 14:53:50;;;;;;;6.90;3.73;;;;;;;;;;5126287;28;20183;-82
2022/06/28 14:56:16;;;;;;;4.13;3.73;;;;;;;;;;5124725;28;20206;-82
2022/06/28 14:58:42;;;;;;;4.10;3.60;;;19.00;99.90;;;;;;5119539;28;20600;-82
2022/06/28 15:01:08;;;;;;;5.37;4.40;;;;;;;;;;5119405;28;20190;-81
2022/06/28 15:03:34;;;;;;;3.93;3.63;;;19.20;99.90;;;;;;5119925;28;20174;-82
2022/06/28 15:06:00;;;;;;;4.60;3.67;;;;;;;;;;5118014;28;20190;-82
2022/06/28 15:08:26;;;;;;;5.17;4.00;;;18.90;99.90;;;;;;5117422;28;20225;-83
2022/06/28 15:10:52;;;;;;;4.10;3.50;;;18.90;99.90;;;;;;5116640;28;20672;-81
2022/06/28 15:13:18;;;;;;;4.20;3.80;;;;;;;;;;5120739;28;20266;-82
2022/06/28 15:15:45;;;;;;;5.90;4.57;;;19.10;99.90;;;;;;5121296;28;20175;-83
2022/06/28 15:18:11;;;;;;;7.53;4.47;;;;;;;;;;5122878;28;20222;-83
2022/06/28 15:20:37;;;;;;;4.70;4.30;;;;;;;;;;5122070;28;20198;-83
2022/06/28 15:31:16;;;;;;;6.07;4.33;;;18.90;99.90;;;;;;5121802;28;20271;-82
2022/06/28 15:33:42;;;;;;;5.37;4.10;;;;;;;;;;5120041;28;20262;-83
2022/06/28 15:36:08;;;;;;;8.37;4.23;;;18.90;99.90;;;;;;5119972;28;20183;-83
2022/06/28 15:38:34;;;;;;;4.50;4.13;;;;;;;;;;5121074;28;20665;-83
2022/06/28 15:41:01;;;;;;;4.30;3.90;;;18.80;99.90;;;;;;5122050;28;20199;-83
2022/06/28 15:43:27;;;;;;;5.30;4.50;;;18.70;99.90;;;;;;5120836;28;20175;-82
2022/06/28 15:45:53;;;;;;;5.73;4.27;;;;;;;;;;5121628;28;20739;-82
2022/06/28 15:48:20;;;;;;;6.70;4.50;;;18.70;99.90;;;;;;5121019;28;20210;-84
2022/06/28 15:50:47;;;;;;;7.60;4.30;;;;;;;;;;5119950;28;20203;-81
2022/06/28 15:53:13;;;;;;;5.40;4.90;;;;;;;;;;5121902;28;20223;-82
2022/06/28 15:55:38;;;;;;;6.77;4.83;;;18.60;99.90;;;;;;5121725;28;20183;-82
2022/06/28 15:58:06;;;;;;;7.13;4.93;;;18.50;99.90;;;;;;5119645;28;20207;-83
2022/06/28 16:00:33;;;;;;;8.23;4.90;;;;;;;;;;5119671;28;20209;-83
2022/06/28 16:02:59;;;;;;;6.03;4.90;;;;;;;;;;5119597;28;20176;-82
2022/06/28 16:05:25;;;;;;;6.17;5.57;;;;;;;;;;5119947;28;20180;-82
2022/06/28 16:07:51;;;;;;;7.33;6.00;;;18.40;99.90;;;;;;5121319;28;20175;-83
2022/06/28 16:10:17;;;;;;;7.50;5.30;;;;;;;;;;5120858;28;20203;-84
2022/06/28 16:12:52;;;;;;;5.90;5.30;;;;;;;;;;5121782;28;20182;-82
2022/06/28 16:15:28;;;;;;;6.20;5.60;;;18.40;99.90;;;;;;5121542;28;20226;-81
2022/06/28 16:17:57;;;;;;;5.50;4.97;;;18.40;99.90;;;;;;5123262;28;20252;-81
2022/06/28 16:20:25;;;;;;;7.70;5.83;;;18.30;99.90;;;;;;5120217;28;20194;-82
2022/06/28 16:22:51;;;;;;;9.13;5.80;;;;;;;;;;5121881;28;20180;-83
2022/06/28 16:25:18;;;;;;;9.43;5.30;;;18.30;99.90;;;;;;5120878;28;20257;-83
2022/06/28 16:27:44;;;;;;;6.07;5.20;;;18.20;99.90;;;;;;5123200;28;20179;-83
2022/06/28 16:30:11;;;;;;;6.90;6.17;;;18.30;99.90;;;;;;5124993;28;20195;-84
2022/06/28 16:32:38;;;;;;;6.63;6.03;;;;;;;;;;5122068;28;20172;-84
2022/06/28 16:35:07;;;;;;;8.07;6.17;;;;;;;;;;5121766;28;20172;-83
2022/06/28 16:37:33;;;;;;;7.50;6.30;;;;;;;;;;5122482;28;20164;-84
2022/06/28 16:39:59;;;;;;;6.17;5.67;;;;;;;;;;5122915;28;20207;-84
2022/06/28 16:42:25;;;;;;;7.83;5.80;;;;;;;;;;5120729;28;20175;-84
2022/06/28 16:44:52;;;;;;;10.03;7.00;;;;;;;;;;5125020;28;20199;-83
2022/06/28 16:47:21;;;;;;;7.33;6.30;;;;;;;;;;5120547;28;20199;-84
2022/06/28 16:49:49;;;;;;;7.67;6.57;;;18.00;99.90;;;;;;5122893;28;20179;-84
2022/06/28 16:52:15;;;;;;;9.37;6.73;;;;;;;;;;5121929;28;20206;-83
2022/06/28 16:54:42;;;;;;;7.37;6.67;;;17.80;99.90;;;;;;5129861;28;20164;-84
2022/06/28 16:57:08;;;;;;;7.70;6.97;;;;;;;;;;5137191;28;20163;-85
2022/06/28 16:59:34;;;;;;;7.93;7.00;;;;;;;;;;5124184;28;20264;-83
2022/06/28 17:02:00;;;;;;;7.67;6.87;;;;;;;;;;5120400;28;20198;-85
2022/06/28 17:04:26;;;;;;;8.00;7.23;;;;;;;;;;5120529;28;20176;-84
2022/06/28 17:09:37;;;;;;;7.70;6.90;;;;;;;;;;5121377;28;20183;-84
2022/06/28 17:12:03;;;;;;;8.30;7.37;;;18.10;99.90;;;;;;5118341;28;20201;-84
2022/06/28 17:14:29;;;;;;;7.70;7.00;;;18.30;99.90;;;;;;5118015;28;20188;-83
2022/06/28 17:16:55;;;;;;;7.30;6.50;;;;;;;;;;5118235;28;20174;-83
2022/06/28 17:19:20;;;;;;;8.80;6.97;;;18.20;99.90;;;;;;5117973;28;20207;-84
2022/06/28 17:21:48;;;;;;;8.80;6.30;;;18.50;99.90;;;;;;5119541;28;20191;-84
2022/06/28 17:24:14;;;;;;;6.17;5.57;;;;;;;;;;5119235;28;20172;-83
2022/06/28 17:26:40;;;;;;;7.20;6.50;;;18.60;99.90;;;;;;5119437;28;20175;-84
2022/06/28 17:29:06;;;;;;;9.47;7.13;;;18.50;99.90;;;;;;5119416;28;20176;-84
2022/06/28 17:31:32;;;;;;;7.97;6.40;;;;;;;;;;5119329;28;20203;-83
2022/06/28 17:33:57;;;;;;;8.97;7.13;;;18.50;99.90;;;;;;5121238;28;20199;-84
2022/06/28 17:36:23;;;;;;;6.80;6.20;;;;;;;;;;5121059;28;20240;-83
2022/06/28 17:38:50;;;;;;;7.60;6.47;;;;;;;;;;5119161;28;20286;-84
2022/06/28 17:41:16;;;;;;;7.90;5.93;;;;;;;;;;5120456;28;20208;-84
2022/06/28 17:43:42;;;;;;;8.13;6.60;;;;;;;;;;5122313;28;20175;-83
2022/06/28 17:46:08;;;;;;;6.60;6.00;;;;;;;;;;5120115;28;20186;-85
2022/06/28 17:48:34;;;;;;;6.60;5.43;;;;;;;;;;5120252;28;20188;-84
2022/06/28 17:51:00;;;;;;;7.83;5.70;;;18.30;99.90;;;;;;5121064;28;20191;-84
2022/06/28 17:53:26;;;;;;;8.33;5.40;;;;;;;;;;5120352;28;20228;-84
2022/06/28 17:55:53;;;;;;;5.87;5.33;;;18.50;99.90;;;;;;5121558;28;20184;-84
2022/06/28 17:58:19;;;;;;;6.67;5.80;;;18.30;99.90;;;;;;5121304;28;20306;-84
2022/06/28 18:00:45;;;;;;;6.03;5.53;;;;;;;;;;5122262;28;20199;-83
2022/06/28 18:03:11;;;;;;;5.90;5.40;;;;;;;;;;5122966;28;20172;-83
2022/06/28 18:05:37;;;;;;;7.83;5.70;;;;;;;;;;5123025;28;20172;-83